sensor_id;sensor_type;location;lat;lon;timestamp;pressure;altitude;pressure_sealevel;temperature;humidity
42297;BME280;28985;47.456;19.016;2022-10-22T00:02:20;100446.94;;;10.49;62.75
42297;BME280;28985;47.456;19.016;2022-10-22T00:04:47;100443.25;;;10.50;62.98
42297;BME280;28985;47.456;19.016;2022-10-22T00:07:15;100441.84;;;10.46;64.43
42297;BME280;28985;47.456;19.016;2022-10-22T00:09:43;100442.66;;;10.46;64.09
42297;BME280;28985;47.456;19.016;2022-10-22T00:12:11;100452.44;;;10.47;63.20
42297;BME280;28985;47.456;19.016;2022-10-22T00:14:37;100450.47;;;10.50;62.92
42297;BME280;28985;47.456;19.016;2022-10-22T00:17:04;100441.66;;;10.47;62.83
42297;BME280;28985;47.456;19.016;2022-10-22T00:19:36;100445.34;;;10.46;63.31
42297;BME280;28985;47.456;19.016;2022-10-22T00:22:03;100441.66;;;10.47;63.38
42297;BME280;28985;47.456;19.016;2022-10-22T00:24:33;100449.38;;;10.52;62.71
42297;BME280;28985;47.456;19.016;2022-10-22T00:27:00;100451.31;;;10.50;62.53
42297;BME280;28985;47.456;19.016;2022-10-22T00:29:27;100445.94;;;10.50;62.92
42297;BME280;28985;47.456;19.016;2022-10-22T00:31:54;100448.03;;;10.46;63.53
42297;BME280;28985;47.456;19.016;2022-10-22T00:34:25;100447.34;;;10.44;64.41
42297;BME280;28985;47.456;19.016;2022-10-22T00:36:52;100431.19;;;10.44;64.52
42297;BME280;28985;47.456;19.016;2022-10-22T00:39:21;100433.88;;;10.44;63.70
42297;BME280;28985;47.456;19.016;2022-10-22T00:41:49;100434.00;;;10.43;63.79
42297;BME280;28985;47.456;19.016;2022-10-22T00:47:21;100435.44;;;10.47;63.73
42297;BME280;28985;47.456;19.016;2022-10-22T00:49:49;100421.41;;;10.43;65.64
42297;BME280;28985;47.456;19.016;2022-10-22T00:52:17;100416.13;;;10.42;65.67
42297;BME280;28985;47.456;19.016;2022-10-22T00:54:44;100422.34;;;10.42;64.81
42297;BME280;28985;47.456;19.016;2022-10-22T00:57:11;100420.56;;;10.43;64.31
42297;BME280;28985;47.456;19.016;2022-10-22T00:59:37;100423.13;;;10.44;63.88
42297;BME280;28985;47.456;19.016;2022-10-22T01:02:04;100429.09;;;10.48;63.55
42297;BME280;28985;47.456;19.016;2022-10-22T01:04:31;100434.03;;;10.53;62.93
42297;BME280;28985;47.456;19.016;2022-10-22T01:06:58;100433.75;;;10.46;64.20
42297;BME280;28985;47.456;19.016;2022-10-22T01:09:41;100428.50;;;10.44;63.88
42297;BME280;28985;47.456;19.016;2022-10-22T01:17:34;100434.25;;;10.40;64.11
42297;BME280;28985;47.456;19.016;2022-10-22T01:23:07;100429.81;;;10.29;65.78
42297;BME280;28985;47.456;19.016;2022-10-22T01:25:48;100426.41;;;10.27;66.02
42297;BME280;28985;47.456;19.016;2022-10-22T01:31:04;100423.25;;;10.21;65.15
42297;BME280;28985;47.456;19.016;2022-10-22T01:33:31;100426.22;;;10.18;65.32
42297;BME280;28985;47.456;19.016;2022-10-22T01:35:59;100429.19;;;10.15;65.26
42297;BME280;28985;47.456;19.016;2022-10-22T01:38:26;100431.75;;;10.17;65.23
42297;BME280;28985;47.456;19.016;2022-10-22T01:40:53;100425.38;;;10.18;65.05
42297;BME280;28985;47.456;19.016;2022-10-22T01:43:20;100420.00;;;10.18;65.15
42297;BME280;28985;47.456;19.016;2022-10-22T01:45:53;100424.63;;;10.16;65.98
42297;BME280;28985;47.456;19.016;2022-10-22T01:52:14;100413.44;;;10.11;67.17
42297;BME280;28985;47.456;19.016;2022-10-22T01:54:44;100423.22;;;10.12;66.36
42297;BME280;28985;47.456;19.016;2022-10-22T01:57:32;100421.78;;;10.07;67.44
42297;BME280;28985;47.456;19.016;2022-10-22T02:00:13;100403.06;;;10.06;67.73
42297;BME280;28985;47.456;19.016;2022-10-22T02:03:10;100409.72;;;10.02;70.00
42297;BME280;28985;47.456;19.016;2022-10-22T02:05:48;100410.09;;;9.97;70.34
42297;BME280;28985;47.456;19.016;2022-10-22T02:08:24;100406.59;;;9.97;68.48
42297;BME280;28985;47.456;19.016;2022-10-22T02:10:53;100411.44;;;10.03;68.19
42297;BME280;28985;47.456;19.016;2022-10-22T02:13:29;100411.38;;;9.93;69.07
42297;BME280;28985;47.456;19.016;2022-10-22T02:15:58;100417.41;;;9.85;69.14
42297;BME280;28985;47.456;19.016;2022-10-22T02:18:27;100407.03;;;9.80;71.19
42297;BME280;28985;47.456;19.016;2022-10-22T02:20:55;100410.13;;;9.76;72.03
42297;BME280;28985;47.456;19.016;2022-10-22T02:23:23;100407.31;;;9.77;71.18
42297;BME280;28985;47.456;19.016;2022-10-22T02:25:54;100407.31;;;9.77;72.23
42297;BME280;28985;47.456;19.016;2022-10-22T02:28:35;100410.91;;;9.88;69.34
42297;BME280;28985;47.456;19.016;2022-10-22T02:31:13;100410.91;;;9.88;69.58
42297;BME280;28985;47.456;19.016;2022-10-22T02:33:47;100412.41;;;9.80;69.43
42297;BME280;28985;47.456;19.016;2022-10-22T02:36:15;100408.13;;;9.78;71.02
42297;BME280;28985;47.456;19.016;2022-10-22T02:38:43;100395.22;;;9.72;72.25
42297;BME280;28985;47.456;19.016;2022-10-22T02:41:11;100391.25;;;9.66;72.53
42297;BME280;28985;47.456;19.016;2022-10-22T02:43:43;100403.50;;;9.59;73.03
42297;BME280;28985;47.456;19.016;2022-10-22T02:46:10;100414.31;;;9.47;72.62
42297;BME280;28985;47.456;19.016;2022-10-22T02:48:37;100416.34;;;9.55;70.68
42297;BME280;28985;47.456;19.016;2022-10-22T02:51:04;100424.78;;;9.50;72.80
42297;BME280;28985;47.456;19.016;2022-10-22T02:53:30;100435.00;;;9.35;73.32
42297;BME280;28985;47.456;19.016;2022-10-22T02:55:58;100435.28;;;9.21;74.93
42297;BME280;28985;47.456;19.016;2022-10-22T02:58:24;100439.09;;;9.18;75.12
42297;BME280;28985;47.456;19.016;2022-10-22T03:00:51;100431.06;;;9.07;75.76
42297;BME280;28985;47.456;19.016;2022-10-22T03:03:17;100422.06;;;8.96;76.56
42297;BME280;28985;47.456;19.016;2022-10-22T03:05:44;100428.78;;;8.91;77.02
42297;BME280;28985;47.456;19.016;2022-10-22T03:08:10;100428.81;;;8.79;77.48
42297;BME280;28985;47.456;19.016;2022-10-22T03:10:37;100432.81;;;8.73;77.27
42297;BME280;28985;47.456;19.016;2022-10-22T03:13:03;100429.66;;;8.80;76.64
42297;BME280;28985;47.456;19.016;2022-10-22T03:15:30;100428.81;;;8.68;77.63
42297;BME280;28985;47.456;19.016;2022-10-22T03:17:56;100425.44;;;8.54;77.82
42297;BME280;28985;47.456;19.016;2022-10-22T03:20:23;100413.34;;;8.60;77.40
42297;BME280;28985;47.456;19.016;2022-10-22T03:22:49;100416.72;;;8.51;77.97
42297;BME280;28985;47.456;19.016;2022-10-22T03:25:20;100416.75;;;8.39;78.82
42297;BME280;28985;47.456;19.016;2022-10-22T03:27:48;100406.84;;;8.40;78.95
42297;BME280;28985;47.456;19.016;2022-10-22T03:30:15;100398.19;;;8.36;79.67
42297;BME280;28985;47.456;19.016;2022-10-22T03:32:42;100400.88;;;8.36;79.59
42297;BME280;28985;47.456;19.016;2022-10-22T03:35:08;100391.13;;;8.46;78.15
42297;BME280;28985;47.456;19.016;2022-10-22T03:37:35;100393.44;;;8.51;78.00
42297;BME280;28985;47.456;19.016;2022-10-22T03:40:04;100386.00;;;8.32;80.29
42297;BME280;28985;47.456;19.016;2022-10-22T03:42:32;100386.00;;;8.20;80.48
42297;BME280;28985;47.456;19.016;2022-10-22T03:44:58;100386.88;;;8.10;80.70
42297;BME280;28985;47.456;19.016;2022-10-22T03:47:25;100374.78;;;8.15;79.32
42297;BME280;28985;47.456;19.016;2022-10-22T03:49:52;100380.03;;;8.28;76.18
42297;BME280;28985;47.456;19.016;2022-10-22T03:52:18;100385.66;;;8.14;78.88
42297;BME280;28985;47.456;19.016;2022-10-22T03:54:45;100392.47;;;7.95;79.95
42297;BME280;28985;47.456;19.016;2022-10-22T03:57:11;100379.56;;;7.89;80.61
42297;BME280;28985;47.456;19.016;2022-10-22T03:59:41;100387.09;;;7.84;81.46
42297;BME280;28985;47.456;19.016;2022-10-22T04:02:09;100391.94;;;7.78;82.46
42297;BME280;28985;47.456;19.016;2022-10-22T04:04:37;100394.75;;;7.77;82.17
42297;BME280;28985;47.456;19.016;2022-10-22T04:07:05;100400.25;;;7.87;80.74
42297;BME280;28985;47.456;19.016;2022-10-22T04:09:32;100408.38;;;7.85;81.82
42297;BME280;28985;47.456;19.016;2022-10-22T04:11:59;100413.53;;;7.88;81.03
42297;BME280;28985;47.456;19.016;2022-10-22T04:14:26;100399.53;;;7.85;81.25
42297;BME280;28985;47.456;19.016;2022-10-22T04:16:53;100394.66;;;7.90;80.56
42297;BME280;28985;47.456;19.016;2022-10-22T04:19:20;100400.31;;;7.74;82.40
42297;BME280;28985;47.456;19.016;2022-10-22T04:21:46;100396.22;;;7.81;81.20
42297;BME280;28985;47.456;19.016;2022-10-22T04:24:13;100402.06;;;7.75;82.52
42297;BME280;28985;47.456;19.016;2022-10-22T04:26:39;100405.06;;;7.70;83.05
42297;BME280;28985;47.456;19.016;2022-10-22T04:29:06;100401.44;;;7.71;83.42
42297;BME280;28985;47.456;19.016;2022-10-22T04:31:40;100402.69;;;7.78;80.92
42297;BME280;28985;47.456;19.016;2022-10-22T04:34:07;100397.03;;;7.70;82.07
42297;BME280;28985;47.456;19.016;2022-10-22T04:36:33;100398.09;;;7.56;83.48
42297;BME280;28985;47.456;19.016;2022-10-22T04:39:00;100390.19;;;7.55;83.78
42297;BME280;28985;47.456;19.016;2022-10-22T04:41:30;100390.88;;;7.45;85.13
42297;BME280;28985;47.456;19.016;2022-10-22T04:43:57;100389.53;;;7.39;85.88
42297;BME280;28985;47.456;19.016;2022-10-22T04:46:27;100389.69;;;7.49;83.87
42297;BME280;28985;47.456;19.016;2022-10-22T04:48:54;100392.72;;;7.56;83.53
42297;BME280;28985;47.456;19.016;2022-10-22T04:51:22;100390.34;;;7.64;81.71
42297;BME280;28985;47.456;19.016;2022-10-22T04:53:49;100376.81;;;7.55;83.67
42297;BME280;28985;47.456;19.016;2022-10-22T04:56:21;100386.50;;;7.44;85.06
42297;BME280;28985;47.456;19.016;2022-10-22T04:58:53;100386.69;;;7.30;85.81
42297;BME280;28985;47.456;19.016;2022-10-22T05:01:28;100386.47;;;7.33;84.77
42297;BME280;28985;47.456;19.016;2022-10-22T05:03:57;100383.69;;;7.34;84.85
42297;BME280;28985;47.456;19.016;2022-10-22T05:06:24;100392.53;;;7.35;85.11
42297;BME280;28985;47.456;19.016;2022-10-22T05:08:53;100395.84;;;7.38;84.53
42297;BME280;28985;47.456;19.016;2022-10-22T05:11:25;100389.34;;;7.30;86.31
42297;BME280;28985;47.456;19.016;2022-10-22T05:13:57;100388.13;;;7.22;87.08
42297;BME280;28985;47.456;19.016;2022-10-22T05:16:25;100394.97;;;7.27;86.32
42297;BME280;28985;47.456;19.016;2022-10-22T05:18:52;100385.75;;;7.31;85.69
42297;BME280;28985;47.456;19.016;2022-10-22T05:21:20;100386.69;;;7.30;86.98
42297;BME280;28985;47.456;19.016;2022-10-22T05:23:48;100391.31;;;7.28;87.06
42297;BME280;28985;47.456;19.016;2022-10-22T05:26:17;100391.94;;;7.31;86.15
42297;BME280;28985;47.456;19.016;2022-10-22T05:28:44;100401.81;;;7.31;87.14
42297;BME280;28985;47.456;19.016;2022-10-22T05:31:12;100393.41;;;7.35;86.61
42297;BME280;28985;47.456;19.016;2022-10-22T05:33:40;100392.69;;;7.33;86.90
42297;BME280;28985;47.456;19.016;2022-10-22T05:36:09;100400.31;;;7.27;87.96
42297;BME280;28985;47.456;19.016;2022-10-22T05:38:37;100398.38;;;7.29;87.57
42297;BME280;28985;47.456;19.016;2022-10-22T05:43:33;100388.75;;;7.26;89.36
42297;BME280;28985;47.456;19.016;2022-10-22T05:46:02;100385.75;;;7.31;89.64
42297;BME280;28985;47.456;19.016;2022-10-22T05:48:29;100387.81;;;7.38;89.14
42297;BME280;28985;47.456;19.016;2022-10-22T05:50:55;100394.53;;;7.44;89.32
42297;BME280;28985;47.456;19.016;2022-10-22T05:53:22;100398.56;;;7.50;89.54
42297;BME280;28985;47.456;19.016;2022-10-22T05:55:49;100405.28;;;7.56;88.57
42297;BME280;28985;47.456;19.016;2022-10-22T05:58:15;100408.81;;;7.56;88.22
42297;BME280;28985;47.456;19.016;2022-10-22T06:00:43;100411.63;;;7.55;88.41
42297;BME280;28985;47.456;19.016;2022-10-22T06:03:09;100412.13;;;7.60;88.54
42297;BME280;28985;47.456;19.016;2022-10-22T06:05:36;100407.63;;;7.60;89.17
42297;BME280;28985;47.456;19.016;2022-10-22T06:08:03;100421.75;;;7.62;89.13
42297;BME280;28985;47.456;19.016;2022-10-22T06:10:30;100421.50;;;7.65;89.08
42297;BME280;28985;47.456;19.016;2022-10-22T06:12:56;100427.38;;;7.71;89.46
42297;BME280;28985;47.456;19.016;2022-10-22T06:15:23;100435.31;;;7.72;90.06
42297;BME280;28985;47.456;19.016;2022-10-22T06:17:51;100427.88;;;7.76;90.19
42297;BME280;28985;47.456;19.016;2022-10-22T06:20:17;100428.88;;;7.86;89.78
42297;BME280;28985;47.456;19.016;2022-10-22T06:22:44;100433.53;;;7.96;88.33
42297;BME280;28985;47.456;19.016;2022-10-22T06:25:11;100432.22;;;8.01;88.47
42297;BME280;28985;47.456;19.016;2022-10-22T06:27:39;100430.84;;;8.07;89.16
42297;BME280;28985;47.456;19.016;2022-10-22T06:30:06;100427.59;;;8.15;89.32
42297;BME280;28985;47.456;19.016;2022-10-22T06:32:33;100442.69;;;8.27;90.38
42297;BME280;28985;47.456;19.016;2022-10-22T06:34:59;100428.56;;;8.37;90.02
42297;BME280;28985;47.456;19.016;2022-10-22T06:37:26;100434.06;;;8.46;89.81
42297;BME280;28985;47.456;19.016;2022-10-22T06:39:52;100429.81;;;8.55;89.67
42297;BME280;28985;47.456;19.016;2022-10-22T06:42:19;100437.00;;;8.66;88.79
42297;BME280;28985;47.456;19.016;2022-10-22T06:44:45;100451.25;;;8.78;87.79
42297;BME280;28985;47.456;19.016;2022-10-22T06:47:12;100456.47;;;8.91;87.78
42297;BME280;28985;47.456;19.016;2022-10-22T06:49:38;100449.97;;;9.05;85.11
42297;BME280;28985;47.456;19.016;2022-10-22T06:52:05;100442.59;;;9.19;84.73
42297;BME280;28985;47.456;19.016;2022-10-22T06:54:32;100445.72;;;9.35;85.18
42297;BME280;28985;47.456;19.016;2022-10-22T06:56:58;100441.91;;;9.49;82.92
42297;BME280;28985;47.456;19.016;2022-10-22T06:59:25;100447.94;;;9.63;82.21
42297;BME280;28985;47.456;19.016;2022-10-22T07:01:51;100435.88;;;9.78;80.98
42297;BME280;28985;47.456;19.016;2022-10-22T07:04:18;100430.44;;;9.90;80.30
42297;BME280;28985;47.456;19.016;2022-10-22T07:06:44;100435.75;;;10.01;79.07
42297;BME280;28985;47.456;19.016;2022-10-22T07:09:11;100445.56;;;10.12;79.69
42297;BME280;28985;47.456;19.016;2022-10-22T07:11:40;100446.63;;;10.21;78.14
42297;BME280;28985;47.456;19.016;2022-10-22T07:14:08;100429.81;;;10.29;77.58
42297;BME280;28985;47.456;19.016;2022-10-22T07:16:34;100441.28;;;10.31;75.57
42297;BME280;28985;47.456;19.016;2022-10-22T07:19:02;100431.84;;;10.37;75.56
42297;BME280;28985;47.456;19.016;2022-10-22T07:21:29;100429.84;;;10.39;74.65
42297;BME280;28985;47.456;19.016;2022-10-22T07:23:57;100435.09;;;10.40;74.34
42297;BME280;28985;47.456;19.016;2022-10-22T07:26:24;100432.19;;;10.43;73.89
42297;BME280;28985;47.456;19.016;2022-10-22T07:28:53;100423.81;;;10.46;74.67
42297;BME280;28985;47.456;19.016;2022-10-22T07:31:20;100431.47;;;10.51;74.39
42297;BME280;28985;47.456;19.016;2022-10-22T07:33:46;100431.94;;;10.56;74.90
42297;BME280;28985;47.456;19.016;2022-10-22T07:36:15;100425.16;;;10.62;75.49
42297;BME280;28985;47.456;19.016;2022-10-22T07:38:52;100423.63;;;10.69;74.32
42297;BME280;28985;47.456;19.016;2022-10-22T07:41:19;100425.91;;;10.84;75.61
42297;BME280;28985;47.456;19.016;2022-10-22T07:43:46;100421.28;;;10.96;74.09
42297;BME280;28985;47.456;19.016;2022-10-22T07:46:12;100413.63;;;11.11;73.13
42297;BME280;28985;47.456;19.016;2022-10-22T07:48:39;100415.06;;;11.25;72.13
42297;BME280;28985;47.456;19.016;2022-10-22T07:51:06;100427.28;;;11.39;71.74
42297;BME280;28985;47.456;19.016;2022-10-22T07:53:33;100430.25;;;11.55;71.15
42297;BME280;28985;47.456;19.016;2022-10-22T07:56:00;100428.69;;;11.73;70.22
42297;BME280;28985;47.456;19.016;2022-10-22T07:58:27;100430.09;;;11.87;69.78
42297;BME280;28985;47.456;19.016;2022-10-22T08:00:55;100433.03;;;12.03;69.10
42297;BME280;28985;47.456;19.016;2022-10-22T08:03:22;100427.75;;;12.21;67.70
42297;BME280;28985;47.456;19.016;2022-10-22T08:05:50;100431.38;;;12.40;67.83
42297;BME280;28985;47.456;19.016;2022-10-22T08:08:17;100428.88;;;12.57;66.45
42297;BME280;28985;47.456;19.016;2022-10-22T08:10:45;100429.38;;;12.70;65.29
42297;BME280;28985;47.456;19.016;2022-10-22T08:13:12;100432.28;;;12.87;66.07
42297;BME280;28985;47.456;19.016;2022-10-22T08:15:39;100427.47;;;13.09;64.36
42297;BME280;28985;47.456;19.016;2022-10-22T08:18:07;100418.34;;;13.28;63.25
42297;BME280;28985;47.456;19.016;2022-10-22T08:20:34;100417.06;;;13.50;60.38
42297;BME280;28985;47.456;19.016;2022-10-22T08:23:01;100417.25;;;13.75;61.28
42297;BME280;28985;47.456;19.016;2022-10-22T08:25:27;100415.06;;;13.97;61.43
42297;BME280;28985;47.456;19.016;2022-10-22T08:27:54;100423.81;;;14.17;57.90
42297;BME280;28985;47.456;19.016;2022-10-22T08:30:21;100427.44;;;14.34;58.19
42297;BME280;28985;47.456;19.016;2022-10-22T08:32:47;100419.09;;;14.54;57.53
42297;BME280;28985;47.456;19.016;2022-10-22T08:35:19;100421.16;;;14.69;55.66
42297;BME280;28985;47.456;19.016;2022-10-22T08:37:45;100430.88;;;14.80;55.53
42297;BME280;28985;47.456;19.016;2022-10-22T08:40:38;100430.22;;;14.86;55.00
42297;BME280;28985;47.456;19.016;2022-10-22T08:48:57;100434.84;;;14.59;53.89
42297;BME280;28985;47.456;19.016;2022-10-22T08:51:29;100444.81;;;14.50;54.36
42297;BME280;28985;47.456;19.016;2022-10-22T08:54:09;100439.69;;;14.47;53.91
42297;BME280;28985;47.456;19.016;2022-10-22T08:56:40;100428.50;;;14.42;56.22
42297;BME280;28985;47.456;19.016;2022-10-22T09:00:00;100443.03;;;14.41;57.24
42297;BME280;28985;47.456;19.016;2022-10-22T09:02:04;100431.38;;;14.40;56.02
42297;BME280;28985;47.456;19.016;2022-10-22T09:04:44;100422.25;;;14.41;56.75
42297;BME280;28985;47.456;19.016;2022-10-22T09:07:13;100436.81;;;14.40;55.51
42297;BME280;28985;47.456;19.016;2022-10-22T09:09:44;100437.38;;;14.26;54.18
42297;BME280;28985;47.456;19.016;2022-10-22T09:12:15;100433.63;;;14.18;54.07
42297;BME280;28985;47.456;19.016;2022-10-22T09:14:45;100438.03;;;14.19;54.93
42297;BME280;28985;47.456;19.016;2022-10-22T09:17:29;100439.03;;;14.18;56.37
42297;BME280;28985;47.456;19.016;2022-10-22T09:20:19;100432.94;;;14.16;56.34
42297;BME280;28985;47.456;19.016;2022-10-22T09:25:31;100420.81;;;14.29;57.96
42297;BME280;28985;47.456;19.016;2022-10-22T09:28:00;100425.44;;;14.36;58.96
42297;BME280;28985;47.456;19.016;2022-10-22T09:30:34;100437.25;;;14.35;58.00
42297;BME280;28985;47.456;19.016;2022-10-22T09:36:01;100445.09;;;14.47;57.63
42297;BME280;28985;47.456;19.016;2022-10-22T09:38:32;100449.19;;;14.43;57.01
42297;BME280;28985;47.456;19.016;2022-10-22T09:41:00;100451.34;;;14.39;57.13
42297;BME280;28985;47.456;19.016;2022-10-22T09:43:29;100453.22;;;14.39;57.91
42297;BME280;28985;47.456;19.016;2022-10-22T09:46:03;100450.81;;;14.35;57.19
42297;BME280;28985;47.456;19.016;2022-10-22T09:48:36;100448.09;;;14.35;58.62
42297;BME280;28985;47.456;19.016;2022-10-22T09:51:26;100436.63;;;14.42;58.62
42297;BME280;28985;47.456;19.016;2022-10-22T09:54:10;100428.34;;;14.43;56.22
42297;BME280;28985;47.456;19.016;2022-10-22T09:56:39;100431.25;;;14.50;57.68
42297;BME280;28985;47.456;19.016;2022-10-22T09:59:14;100435.00;;;14.57;57.81
42297;BME280;28985;47.456;19.016;2022-10-22T10:01:41;100435.38;;;14.62;58.55
42297;BME280;28985;47.456;19.016;2022-10-22T10:04:11;100437.59;;;14.67;58.26
42297;BME280;28985;47.456;19.016;2022-10-22T10:06:40;100430.47;;;14.66;56.21
42297;BME280;28985;47.456;19.016;2022-10-22T10:09:16;100438.09;;;14.71;57.33
42297;BME280;28985;47.456;19.016;2022-10-22T10:14:41;100427.66;;;14.76;54.69
42297;BME280;28985;47.456;19.016;2022-10-22T10:30:55;100426.91;;;15.09;56.17
42297;BME280;28985;47.456;19.016;2022-10-22T10:43:01;100411.69;;;15.16;56.41
42297;BME280;28985;47.456;19.016;2022-10-22T10:45:36;100423.88;;;15.20;57.44
42297;BME280;28985;47.456;19.016;2022-10-22T10:50:51;100431.19;;;15.28;54.27
42297;BME280;28985;47.456;19.016;2022-10-22T10:53:35;100445.56;;;15.20;54.39
42297;BME280;28985;47.456;19.016;2022-10-22T11:01:48;100443.22;;;15.25;55.63
42297;BME280;28985;47.456;19.016;2022-10-22T11:07:04;100437.28;;;15.30;57.89
42297;BME280;28985;47.456;19.016;2022-10-22T11:09:56;100424.75;;;15.29;56.21
42297;BME280;28985;47.456;19.016;2022-10-22T11:12:29;100431.19;;;15.28;55.30
42297;BME280;28985;47.456;19.016;2022-10-22T11:15:30;100422.72;;;15.31;57.84
42297;BME280;28985;47.456;19.016;2022-10-22T11:18:15;100415.25;;;15.33;58.72
42297;BME280;28985;47.456;19.016;2022-10-22T11:21:06;100416.78;;;15.36;58.28
42297;BME280;28985;47.456;19.016;2022-10-22T11:23:43;100410.19;;;15.38;58.50
42297;BME280;28985;47.456;19.016;2022-10-22T11:26:18;100404.75;;;15.38;58.33
42297;BME280;28985;47.456;19.016;2022-10-22T11:28:52;100396.25;;;15.41;58.39
42297;BME280;28985;47.456;19.016;2022-10-22T11:31:22;100392.38;;;15.44;57.14
42297;BME280;28985;47.456;19.016;2022-10-22T11:34:03;100383.03;;;15.47;56.38
42297;BME280;28985;47.456;19.016;2022-10-22T11:36:51;100391.00;;;15.56;58.53
42297;BME280;28985;47.456;19.016;2022-10-22T11:39:30;100383.91;;;15.64;59.54
42297;BME280;28985;47.456;19.016;2022-10-22T11:42:04;100378.81;;;15.69;57.46
42297;BME280;28985;47.456;19.016;2022-10-22T11:44:44;100389.66;;;15.69;56.22
42297;BME280;28985;47.456;19.016;2022-10-22T11:47:18;100380.66;;;15.77;56.54
42297;BME280;28985;47.456;19.016;2022-10-22T11:49:56;100384.41;;;15.92;56.35
42297;BME280;28985;47.456;19.016;2022-10-22T11:53:33;100367.22;;;16.08;56.31
42297;BME280;28985;47.456;19.016;2022-10-22T11:55:42;100372.63;;;16.17;55.50
42297;BME280;28985;47.456;19.016;2022-10-22T12:06:15;100367.91;;;16.50;55.09
42297;BME280;28985;47.456;19.016;2022-10-22T12:13:56;100356.66;;;16.62;54.24
42297;BME280;28985;47.456;19.016;2022-10-22T12:16:25;100373.19;;;16.52;53.61
42297;BME280;28985;47.456;19.016;2022-10-22T12:21:59;100356.34;;;16.57;54.71
42297;BME280;28985;47.456;19.016;2022-10-22T12:24:35;100359.94;;;16.49;56.37
42297;BME280;28985;47.456;19.016;2022-10-22T12:27:03;100352.53;;;16.34;55.21
42297;BME280;28985;47.456;19.016;2022-10-22T12:29:31;100347.63;;;16.30;58.45
42297;BME280;28985;47.456;19.016;2022-10-22T12:32:02;100343.44;;;16.19;56.09
42297;BME280;28985;47.456;19.016;2022-10-22T12:34:29;100346.84;;;16.13;56.69
42297;BME280;28985;47.456;19.016;2022-10-22T12:36:56;100353.09;;;16.13;56.85
42297;BME280;28985;47.456;19.016;2022-10-22T12:39:26;100348.22;;;16.08;56.28
42297;BME280;28985;47.456;19.016;2022-10-22T12:41:54;100336.84;;;16.05;56.40
42297;BME280;28985;47.456;19.016;2022-10-22T12:44:20;100346.19;;;16.02;56.58
42297;BME280;28985;47.456;19.016;2022-10-22T12:46:48;100348.75;;;15.87;57.82
42297;BME280;28985;47.456;19.016;2022-10-22T12:49:26;100356.75;;;15.72;58.76
42297;BME280;28985;47.456;19.016;2022-10-22T12:52:00;100365.25;;;15.69;58.84
42297;BME280;28985;47.456;19.016;2022-10-22T12:54:30;100359.81;;;15.61;59.54
42297;BME280;28985;47.456;19.016;2022-10-22T12:56:58;100358.28;;;15.58;60.27
42297;BME280;28985;47.456;19.016;2022-10-22T12:59:28;100351.84;;;15.59;59.37
42297;BME280;28985;47.456;19.016;2022-10-22T13:01:58;100353.22;;;15.55;59.96
42297;BME280;28985;47.456;19.016;2022-10-22T13:07:14;100364.41;;;15.52;60.59
42297;BME280;28985;47.456;19.016;2022-10-22T13:09:57;100355.06;;;15.54;60.74
42297;BME280;28985;47.456;19.016;2022-10-22T13:12:25;100356.94;;;15.54;60.49
42297;BME280;28985;47.456;19.016;2022-10-22T13:14:52;100356.28;;;15.60;63.19
42297;BME280;28985;47.456;19.016;2022-10-22T13:17:36;100359.97;;;15.67;61.14
42297;BME280;28985;47.456;19.016;2022-10-22T13:20:19;100360.81;;;15.68;64.71
42297;BME280;28985;47.456;19.016;2022-10-22T13:22:55;100364.38;;;15.68;66.15
42297;BME280;28985;47.456;19.016;2022-10-22T13:25:30;100352.34;;;15.63;63.63
42297;BME280;28985;47.456;19.016;2022-10-22T13:28:09;100346.41;;;15.59;64.41
42297;BME280;28985;47.456;19.016;2022-10-22T13:30:38;100347.78;;;15.63;62.61
42297;BME280;28985;47.456;19.016;2022-10-22T13:33:29;100356.09;;;15.70;62.19
42297;BME280;28985;47.456;19.016;2022-10-22T13:35:57;100347.25;;;15.76;61.67
42297;BME280;28985;47.456;19.016;2022-10-22T13:38:25;100354.88;;;15.81;61.23
42297;BME280;28985;47.456;19.016;2022-10-22T13:40:52;100358.28;;;15.75;61.84
42297;BME280;28985;47.456;19.016;2022-10-22T13:43:19;100358.44;;;15.73;62.70
42297;BME280;28985;47.456;19.016;2022-10-22T13:45:48;100359.28;;;15.65;63.09
42297;BME280;28985;47.456;19.016;2022-10-22T13:48:19;100362.38;;;15.62;63.24
42297;BME280;28985;47.456;19.016;2022-10-22T13:50:51;100361.16;;;15.65;63.61
42297;BME280;28985;47.456;19.016;2022-10-22T13:53:21;100357.25;;;15.59;64.80
42297;BME280;28985;47.456;19.016;2022-10-22T13:55:48;100367.97;;;15.52;64.56
42297;BME280;28985;47.456;19.016;2022-10-22T13:58:17;100371.38;;;15.46;64.81
42297;BME280;28985;47.456;19.016;2022-10-22T14:00:47;100366.59;;;15.48;65.69
42297;BME280;28985;47.456;19.016;2022-10-22T14:03:16;100370.19;;;15.49;66.02
42297;BME280;28985;47.456;19.016;2022-10-22T14:05:45;100376.28;;;15.51;65.52
42297;BME280;28985;47.456;19.016;2022-10-22T14:08:14;100371.03;;;15.57;65.36
42297;BME280;28985;47.456;19.016;2022-10-22T14:10:42;100371.50;;;15.53;65.65
42297;BME280;28985;47.456;19.016;2022-10-22T14:13:13;100375.25;;;15.43;65.54
42297;BME280;28985;47.456;19.016;2022-10-22T14:15:40;100386.78;;;15.37;65.74
42297;BME280;28985;47.456;19.016;2022-10-22T14:18:08;100390.50;;;15.28;65.73
42297;BME280;28985;47.456;19.016;2022-10-22T14:20:39;100385.44;;;15.25;65.97
42297;BME280;28985;47.456;19.016;2022-10-22T14:23:15;100382.38;;;15.20;66.42
42297;BME280;28985;47.456;19.016;2022-10-22T14:25:44;100379.16;;;15.16;66.31
42297;BME280;28985;47.456;19.016;2022-10-22T14:28:11;100379.63;;;15.11;66.33